sensor_id;sensor_type;location;lat;lon;timestamp;P1;durP1;ratioP1;P2;durP2;ratioP2
14611;SDS011;7392;52.078;11.650;2023-05-10T00:01:49;3.37;;;2.80;;
14611;SDS011;7392;52.078;11.650;2023-05-10T00:04:17;3.23;;;2.80;;
14611;SDS011;7392;52.078;11.650;2023-05-10T00:06:45;2.80;;;2.50;;
14611;SDS011;7392;52.078;11.650;2023-05-10T00:09:13;3.20;;;2.90;;
14611;SDS011;7392;52.078;11.650;2023-05-10T00:11:42;5.43;;;3.40;;
14611;SDS011;7392;52.078;11.650;2023-05-10T00:14:11;3.50;;;2.83;;
14611;SDS011;7392;52.078;11.650;2023-05-10T00:16:39;3.83;;;2.80;;
14611;SDS011;7392;52.078;11.650;2023-05-10T00:19:07;3.30;;;3.00;;
14611;SDS011;7392;52.078;11.650;2023-05-10T00:21:35;3.17;;;2.87;;
14611;SDS011;7392;52.078;11.650;2023-05-10T00:24:03;3.33;;;2.50;;
14611;SDS011;7392;52.078;11.650;2023-05-10T00:26:32;3.90;;;2.90;;
14611;SDS011;7392;52.078;11.650;2023-05-10T00:29:01;3.90;;;2.60;;
14611;SDS011;7392;52.078;11.650;2023-05-10T00:31:29;5.07;;;3.00;;
14611;SDS011;7392;52.078;11.650;2023-05-10T00:33:56;3.10;;;2.80;;
14611;SDS011;7392;52.078;11.650;2023-05-10T00:36:24;3.40;;;2.90;;
14611;SDS011;7392;52.078;11.650;2023-05-10T00:38:52;3.80;;;3.03;;
14611;SDS011;7392;52.078;11.650;2023-05-10T00:41:20;3.33;;;2.90;;
14611;SDS011;7392;52.078;11.650;2023-05-10T00:43:48;3.77;;;2.50;;
14611;SDS011;7392;52.078;11.650;2023-05-10T00:46:17;4.40;;;2.80;;
14611;SDS011;7392;52.078;11.650;2023-05-10T00:48:45;3.10;;;2.80;;
14611;SDS011;7392;52.078;11.650;2023-05-10T00:51:13;3.17;;;2.90;;
14611;SDS011;7392;52.078;11.650;2023-05-10T00:53:42;4.30;;;3.20;;
14611;SDS011;7392;52.078;11.650;2023-05-10T00:56:11;5.50;;;3.07;;
14611;SDS011;7392;52.078;11.650;2023-05-10T00:58:39;3.47;;;2.87;;
14611;SDS011;7392;52.078;11.650;2023-05-10T01:01:07;3.40;;;2.67;;
14611;SDS011;7392;52.078;11.650;2023-05-10T01:03:37;3.17;;;2.87;;
14611;SDS011;7392;52.078;11.650;2023-05-10T01:06:05;4.33;;;2.77;;
14611;SDS011;7392;52.078;11.650;2023-05-10T01:08:33;3.70;;;2.83;;
14611;SDS011;7392;52.078;11.650;2023-05-10T01:11:01;2.90;;;2.60;;
14611;SDS011;7392;52.078;11.650;2023-05-10T01:13:30;3.90;;;3.07;;
14611;SDS011;7392;52.078;11.650;2023-05-10T01:16:01;4.50;;;3.07;;
14611;SDS011;7392;52.078;11.650;2023-05-10T01:18:29;3.67;;;2.93;;
14611;SDS011;7392;52.078;11.650;2023-05-10T01:21:04;3.60;;;3.20;;
14611;SDS011;7392;52.078;11.650;2023-05-10T01:23:49;3.43;;;3.13;;
14611;SDS011;7392;52.078;11.650;2023-05-10T01:26:39;3.13;;;2.83;;
14611;SDS011;7392;52.078;11.650;2023-05-10T01:29:33;3.17;;;2.87;;
14611;SDS011;7392;52.078;11.650;2023-05-10T01:32:43;3.00;;;2.70;;
14611;SDS011;7392;52.078;11.650;2023-05-10T01:35:19;4.97;;;3.13;;
14611;SDS011;7392;52.078;11.650;2023-05-10T01:37:57;5.67;;;3.10;;
14611;SDS011;7392;52.078;11.650;2023-05-10T01:40:30;4.10;;;3.00;;
14611;SDS011;7392;52.078;11.650;2023-05-10T01:43:04;4.70;;;3.50;;
14611;SDS011;7392;52.078;11.650;2023-05-10T01:45:37;4.70;;;2.97;;
14611;SDS011;7392;52.078;11.650;2023-05-10T01:48:12;3.20;;;2.90;;
14611;SDS011;7392;52.078;11.650;2023-05-10T01:50:43;5.20;;;3.20;;
14611;SDS011;7392;52.078;11.650;2023-05-10T01:53:13;4.40;;;3.37;;
14611;SDS011;7392;52.078;11.650;2023-05-10T01:55:46;4.67;;;3.13;;
14611;SDS011;7392;52.078;11.650;2023-05-10T01:58:17;3.53;;;3.23;;
14611;SDS011;7392;52.078;11.650;2023-05-10T02:00:48;4.80;;;3.20;;
14611;SDS011;7392;52.078;11.650;2023-05-10T02:03:20;3.87;;;2.93;;
14611;SDS011;7392;52.078;11.650;2023-05-10T02:05:50;3.10;;;2.80;;
14611;SDS011;7392;52.078;11.650;2023-05-10T02:08:21;4.13;;;2.80;;
14611;SDS011;7392;52.078;11.650;2023-05-10T02:10:50;3.50;;;3.20;;
14611;SDS011;7392;52.078;11.650;2023-05-10T02:13:20;3.87;;;3.37;;
14611;SDS011;7392;52.078;11.650;2023-05-10T02:15:50;4.83;;;3.03;;
14611;SDS011;7392;52.078;11.650;2023-05-10T02:18:21;6.73;;;3.20;;
14611;SDS011;7392;52.078;11.650;2023-05-10T02:20:51;3.80;;;3.30;;
14611;SDS011;7392;52.078;11.650;2023-05-10T02:23:21;5.60;;;3.20;;
14611;SDS011;7392;52.078;11.650;2023-05-10T02:25:50;3.80;;;3.10;;
14611;SDS011;7392;52.078;11.650;2023-05-10T02:28:20;3.63;;;3.27;;
14611;SDS011;7392;52.078;11.650;2023-05-10T02:30:49;4.10;;;3.40;;
14611;SDS011;7392;52.078;11.650;2023-05-10T02:33:18;3.87;;;3.10;;
14611;SDS011;7392;52.078;11.650;2023-05-10T02:35:49;3.67;;;3.00;;
14611;SDS011;7392;52.078;11.650;2023-05-10T02:38:18;4.53;;;3.20;;
14611;SDS011;7392;52.078;11.650;2023-05-10T02:40:49;5.67;;;3.37;;
14611;SDS011;7392;52.078;11.650;2023-05-10T02:43:18;7.33;;;3.30;;
14611;SDS011;7392;52.078;11.650;2023-05-10T02:45:48;4.00;;;3.50;;
14611;SDS011;7392;52.078;11.650;2023-05-10T02:48:16;3.53;;;3.10;;
14611;SDS011;7392;52.078;11.650;2023-05-10T02:50:45;3.90;;;3.30;;
14611;SDS011;7392;52.078;11.650;2023-05-10T02:53:21;3.83;;;3.13;;
14611;SDS011;7392;52.078;11.650;2023-05-10T02:55:51;3.50;;;3.20;;
14611;SDS011;7392;52.078;11.650;2023-05-10T02:58:24;3.60;;;3.03;;
14611;SDS011;7392;52.078;11.650;2023-05-10T03:00:52;4.37;;;3.70;;
14611;SDS011;7392;52.078;11.650;2023-05-10T03:03:21;3.47;;;3.00;;
14611;SDS011;7392;52.078;11.650;2023-05-10T03:05:49;3.20;;;2.90;;
14611;SDS011;7392;52.078;11.650;2023-05-10T03:08:21;5.20;;;3.30;;
14611;SDS011;7392;52.078;11.650;2023-05-10T03:10:54;4.17;;;3.70;;
14611;SDS011;7392;52.078;11.650;2023-05-10T03:13:31;3.77;;;3.23;;
14611;SDS011;7392;52.078;11.650;2023-05-10T03:16:14;4.60;;;3.30;;
14611;SDS011;7392;52.078;11.650;2023-05-10T03:18:48;3.47;;;2.93;;
14611;SDS011;7392;52.078;11.650;2023-05-10T03:21:22;4.07;;;3.43;;
14611;SDS011;7392;52.078;11.650;2023-05-10T03:23:56;3.70;;;3.30;;
14611;SDS011;7392;52.078;11.650;2023-05-10T03:26:27;4.00;;;3.30;;
14611;SDS011;7392;52.078;11.650;2023-05-10T03:29:04;3.63;;;3.27;;
14611;SDS011;7392;52.078;11.650;2023-05-10T03:31:33;3.70;;;3.30;;
14611;SDS011;7392;52.078;11.650;2023-05-10T03:34:02;3.40;;;3.10;;
14611;SDS011;7392;52.078;11.650;2023-05-10T03:36:29;4.10;;;3.23;;
14611;SDS011;7392;52.078;11.650;2023-05-10T03:38:59;4.97;;;3.80;;
14611;SDS011;7392;52.078;11.650;2023-05-10T03:41:27;3.50;;;3.20;;
14611;SDS011;7392;52.078;11.650;2023-05-10T03:43:54;3.50;;;2.93;;
14611;SDS011;7392;52.078;11.650;2023-05-10T03:46:22;4.10;;;3.33;;
14611;SDS011;7392;52.078;11.650;2023-05-10T03:48:50;4.13;;;3.33;;
14611;SDS011;7392;52.078;11.650;2023-05-10T03:51:18;3.57;;;3.10;;
14611;SDS011;7392;52.078;11.650;2023-05-10T03:53:47;5.07;;;3.00;;
14611;SDS011;7392;52.078;11.650;2023-05-10T03:56:16;6.73;;;3.50;;
14611;SDS011;7392;52.078;11.650;2023-05-10T03:58:44;5.20;;;3.33;;
14611;SDS011;7392;52.078;11.650;2023-05-10T04:01:12;3.93;;;3.03;;
14611;SDS011;7392;52.078;11.650;2023-05-10T04:03:40;3.50;;;3.20;;
14611;SDS011;7392;52.078;11.650;2023-05-10T04:06:07;3.57;;;2.80;;
14611;SDS011;7392;52.078;11.650;2023-05-10T04:08:38;3.70;;;3.00;;
14611;SDS011;7392;52.078;11.650;2023-05-10T04:11:05;3.23;;;2.93;;
14611;SDS011;7392;52.078;11.650;2023-05-10T04:13:36;4.90;;;3.40;;
14611;SDS011;7392;52.078;11.650;2023-05-10T04:16:04;3.47;;;3.10;;
14611;SDS011;7392;52.078;11.650;2023-05-10T04:18:32;5.30;;;3.40;;
14611;SDS011;7392;52.078;11.650;2023-05-10T04:21:01;3.13;;;2.83;;
14611;SDS011;7392;52.078;11.650;2023-05-10T04:23:28;3.87;;;3.10;;
14611;SDS011;7392;52.078;11.650;2023-05-10T04:26:00;4.17;;;3.40;;
14611;SDS011;7392;52.078;11.650;2023-05-10T04:28:27;3.37;;;3.00;;
14611;SDS011;7392;52.078;11.650;2023-05-10T04:31:01;3.30;;;2.93;;
14611;SDS011;7392;52.078;11.650;2023-05-10T04:33:30;6.60;;;3.40;;
14611;SDS011;7392;52.078;11.650;2023-05-10T04:35:58;4.33;;;3.53;;
14611;SDS011;7392;52.078;11.650;2023-05-10T04:38:26;3.50;;;2.90;;
14611;SDS011;7392;52.078;11.650;2023-05-10T04:40:54;3.13;;;2.83;;
14611;SDS011;7392;52.078;11.650;2023-05-10T04:43:21;3.63;;;2.90;;
14611;SDS011;7392;52.078;11.650;2023-05-10T04:45:49;4.67;;;3.27;;
14611;SDS011;7392;52.078;11.650;2023-05-10T04:48:19;4.13;;;3.10;;
14611;SDS011;7392;52.078;11.650;2023-05-10T04:50:46;3.83;;;3.07;;
14611;SDS011;7392;52.078;11.650;2023-05-10T04:53:14;4.50;;;2.87;;
14611;SDS011;7392;52.078;11.650;2023-05-10T04:55:42;3.73;;;3.07;;
14611;SDS011;7392;52.078;11.650;2023-05-10T04:58:10;4.00;;;2.50;;
14611;SDS011;7392;52.078;11.650;2023-05-10T05:00:38;3.70;;;3.27;;
14611;SDS011;7392;52.078;11.650;2023-05-10T05:03:06;3.60;;;2.93;;
14611;SDS011;7392;52.078;11.650;2023-05-10T05:05:35;3.97;;;3.10;;
14611;SDS011;7392;52.078;11.650;2023-05-10T05:08:03;3.53;;;2.90;;
14611;SDS011;7392;52.078;11.650;2023-05-10T05:10:31;3.30;;;2.80;;
14611;SDS011;7392;52.078;11.650;2023-05-10T05:12:59;5.23;;;3.20;;
14611;SDS011;7392;52.078;11.650;2023-05-10T05:15:26;4.40;;;2.67;;
14611;SDS011;7392;52.078;11.650;2023-05-10T05:17:54;2.70;;;2.50;;
14611;SDS011;7392;52.078;11.650;2023-05-10T05:20:22;3.20;;;2.90;;
14611;SDS011;7392;52.078;11.650;2023-05-10T05:22:51;3.63;;;3.00;;
14611;SDS011;7392;52.078;11.650;2023-05-10T05:25:19;3.60;;;2.63;;
14611;SDS011;7392;52.078;11.650;2023-05-10T05:27:47;3.80;;;2.97;;
14611;SDS011;7392;52.078;11.650;2023-05-10T05:30:15;3.37;;;2.53;;
14611;SDS011;7392;52.078;11.650;2023-05-10T05:32:43;3.70;;;2.80;;
14611;SDS011;7392;52.078;11.650;2023-05-10T05:35:13;4.53;;;3.03;;
14611;SDS011;7392;52.078;11.650;2023-05-10T05:37:41;3.23;;;2.93;;
14611;SDS011;7392;52.078;11.650;2023-05-10T05:40:13;3.50;;;3.00;;
14611;SDS011;7392;52.078;11.650;2023-05-10T05:42:41;3.50;;;3.10;;
14611;SDS011;7392;52.078;11.650;2023-05-10T05:45:09;5.50;;;3.13;;
14611;SDS011;7392;52.078;11.650;2023-05-10T05:47:39;3.40;;;3.00;;
14611;SDS011;7392;52.078;11.650;2023-05-10T05:50:07;3.87;;;3.13;;
14611;SDS011;7392;52.078;11.650;2023-05-10T05:52:36;4.70;;;3.00;;
14611;SDS011;7392;52.078;11.650;2023-05-10T05:55:04;3.13;;;2.83;;
14611;SDS011;7392;52.078;11.650;2023-05-10T05:57:33;3.47;;;3.10;;
14611;SDS011;7392;52.078;11.650;2023-05-10T06:00:01;3.73;;;2.93;;
14611;SDS011;7392;52.078;11.650;2023-05-10T06:02:37;4.17;;;3.30;;
14611;SDS011;7392;52.078;11.650;2023-05-10T06:05:06;5.93;;;3.50;;
14611;SDS011;7392;52.078;11.650;2023-05-10T06:07:34;4.17;;;2.87;;
14611;SDS011;7392;52.078;11.650;2023-05-10T06:10:02;4.13;;;3.40;;
14611;SDS011;7392;52.078;11.650;2023-05-10T06:12:30;3.67;;;2.77;;
14611;SDS011;7392;52.078;11.650;2023-05-10T06:15:00;3.30;;;2.93;;
14611;SDS011;7392;52.078;11.650;2023-05-10T06:17:28;4.47;;;3.27;;
14611;SDS011;7392;52.078;11.650;2023-05-10T06:19:56;3.50;;;3.20;;
14611;SDS011;7392;52.078;11.650;2023-05-10T06:22:24;4.13;;;3.20;;
14611;SDS011;7392;52.078;11.650;2023-05-10T06:24:52;4.17;;;3.33;;
14611;SDS011;7392;52.078;11.650;2023-05-10T06:27:20;3.33;;;2.70;;
14611;SDS011;7392;52.078;11.650;2023-05-10T06:29:48;4.60;;;3.50;;
14611;SDS011;7392;52.078;11.650;2023-05-10T06:32:23;3.43;;;3.10;;
14611;SDS011;7392;52.078;11.650;2023-05-10T06:34:51;4.63;;;3.30;;
14611;SDS011;7392;52.078;11.650;2023-05-10T06:37:18;3.33;;;3.00;;
14611;SDS011;7392;52.078;11.650;2023-05-10T06:39:46;3.80;;;3.30;;
14611;SDS011;7392;52.078;11.650;2023-05-10T06:42:14;3.47;;;3.00;;
14611;SDS011;7392;52.078;11.650;2023-05-10T06:44:45;6.00;;;3.33;;
14611;SDS011;7392;52.078;11.650;2023-05-10T06:47:13;4.63;;;2.80;;
14611;SDS011;7392;52.078;11.650;2023-05-10T06:49:42;3.87;;;3.10;;
14611;SDS011;7392;52.078;11.650;2023-05-10T06:52:09;4.87;;;3.13;;
14611;SDS011;7392;52.078;11.650;2023-05-10T06:54:37;3.80;;;3.40;;
14611;SDS011;7392;52.078;11.650;2023-05-10T06:57:05;3.63;;;3.23;;
14611;SDS011;7392;52.078;11.650;2023-05-10T06:59:48;5.00;;;3.07;;
14611;SDS011;7392;52.078;11.650;2023-05-10T07:02:17;6.07;;;3.60;;
14611;SDS011;7392;52.078;11.650;2023-05-10T07:04:46;5.07;;;3.50;;
14611;SDS011;7392;52.078;11.650;2023-05-10T07:07:15;5.27;;;3.60;;
14611;SDS011;7392;52.078;11.650;2023-05-10T07:09:43;3.60;;;3.20;;
14611;SDS011;7392;52.078;11.650;2023-05-10T07:12:11;3.73;;;3.43;;
14611;SDS011;7392;52.078;11.650;2023-05-10T07:14:41;3.37;;;3.07;;
14611;SDS011;7392;52.078;11.650;2023-05-10T07:17:09;3.50;;;3.20;;
14611;SDS011;7392;52.078;11.650;2023-05-10T07:19:37;4.33;;;3.30;;
14611;SDS011;7392;52.078;11.650;2023-05-10T07:22:06;4.90;;;3.40;;
14611;SDS011;7392;52.078;11.650;2023-05-10T07:24:34;5.33;;;3.20;;
14611;SDS011;7392;52.078;11.650;2023-05-10T07:27:01;5.60;;;3.57;;
14611;SDS011;7392;52.078;11.650;2023-05-10T07:29:30;5.33;;;3.30;;
14611;SDS011;7392;52.078;11.650;2023-05-10T07:31:58;4.27;;;3.43;;
14611;SDS011;7392;52.078;11.650;2023-05-10T07:34:26;4.33;;;3.27;;
14611;SDS011;7392;52.078;11.650;2023-05-10T07:36:57;4.57;;;3.20;;
14611;SDS011;7392;52.078;11.650;2023-05-10T07:39:26;5.97;;;3.37;;
14611;SDS011;7392;52.078;11.650;2023-05-10T07:41:55;4.00;;;3.07;;
14611;SDS011;7392;52.078;11.650;2023-05-10T07:44:23;3.57;;;3.10;;
14611;SDS011;7392;52.078;11.650;2023-05-10T07:46:50;4.13;;;3.40;;
14611;SDS011;7392;52.078;11.650;2023-05-10T07:49:18;6.63;;;3.37;;
14611;SDS011;7392;52.078;11.650;2023-05-10T07:51:46;3.73;;;3.17;;
14611;SDS011;7392;52.078;11.650;2023-05-10T07:54:14;4.67;;;3.67;;
14611;SDS011;7392;52.078;11.650;2023-05-10T07:56:44;4.50;;;3.17;;
14611;SDS011;7392;52.078;11.650;2023-05-10T07:59:14;3.67;;;3.27;;
14611;SDS011;7392;52.078;11.650;2023-05-10T08:01:43;6.13;;;3.43;;
14611;SDS011;7392;52.078;11.650;2023-05-10T08:04:11;4.90;;;3.47;;
14611;SDS011;7392;52.078;11.650;2023-05-10T08:06:39;5.17;;;4.03;;
14611;SDS011;7392;52.078;11.650;2023-05-10T08:09:07;5.30;;;3.77;;
14611;SDS011;7392;52.078;11.650;2023-05-10T08:11:35;4.03;;;3.37;;
14611;SDS011;7392;52.078;11.650;2023-05-10T08:14:04;4.60;;;3.43;;
14611;SDS011;7392;52.078;11.650;2023-05-10T08:16:32;6.77;;;3.80;;
14611;SDS011;7392;52.078;11.650;2023-05-10T08:19:00;5.17;;;3.90;;
14611;SDS011;7392;52.078;11.650;2023-05-10T08:21:29;5.80;;;3.80;;
14611;SDS011;7392;52.078;11.650;2023-05-10T08:23:58;5.20;;;3.70;;
14611;SDS011;7392;52.078;11.650;2023-05-10T08:26:26;4.70;;;3.87;;
14611;SDS011;7392;52.078;11.650;2023-05-10T08:28:54;3.97;;;3.57;;
14611;SDS011;7392;52.078;11.650;2023-05-10T08:31:23;4.30;;;3.83;;
14611;SDS011;7392;52.078;11.650;2023-05-10T08:33:51;4.70;;;3.53;;
14611;SDS011;7392;52.078;11.650;2023-05-10T08:36:19;4.37;;;3.70;;
14611;SDS011;7392;52.078;11.650;2023-05-10T08:38:49;4.40;;;3.60;;
14611;SDS011;7392;52.078;11.650;2023-05-10T08:41:19;5.13;;;3.83;;
14611;SDS011;7392;52.078;11.650;2023-05-10T08:43:47;5.23;;;3.60;;
14611;SDS011;7392;52.078;11.650;2023-05-10T08:46:17;4.00;;;3.57;;
14611;SDS011;7392;52.078;11.650;2023-05-10T08:48:48;4.47;;;3.40;;
14611;SDS011;7392;52.078;11.650;2023-05-10T08:51:17;4.73;;;3.63;;
14611;SDS011;7392;52.078;11.650;2023-05-10T08:53:47;4.00;;;3.60;;
14611;SDS011;7392;52.078;11.650;2023-05-10T08:56:15;3.83;;;3.27;;
14611;SDS011;7392;52.078;11.650;2023-05-10T08:58:44;5.97;;;3.63;;
14611;SDS011;7392;52.078;11.650;2023-05-10T09:01:12;5.27;;;3.83;;
14611;SDS011;7392;52.078;11.650;2023-05-10T09:03:42;4.53;;;3.80;;
14611;SDS011;7392;52.078;11.650;2023-05-10T09:06:12;4.50;;;3.77;;
14611;SDS011;7392;52.078;11.650;2023-05-10T09:08:40;6.63;;;4.13;;
14611;SDS011;7392;52.078;11.650;2023-05-10T09:11:09;4.77;;;4.00;;
14611;SDS011;7392;52.078;11.650;2023-05-10T09:13:38;4.90;;;3.57;;
14611;SDS011;7392;52.078;11.650;2023-05-10T09:16:06;4.13;;;3.57;;
14611;SDS011;7392;52.078;11.650;2023-05-10T09:18:46;4.40;;;3.67;;
14611;SDS011;7392;52.078;11.650;2023-05-10T09:21:17;5.70;;;4.17;;
14611;SDS011;7392;52.078;11.650;2023-05-10T09:23:46;4.63;;;3.60;;
14611;SDS011;7392;52.078;11.650;2023-05-10T09:26:16;4.77;;;4.03;;
14611;SDS011;7392;52.078;11.650;2023-05-10T09:28:52;4.63;;;3.70;;
14611;SDS011;7392;52.078;11.650;2023-05-10T09:31:21;4.13;;;3.40;;
14611;SDS011;7392;52.078;11.650;2023-05-10T09:33:50;5.77;;;4.40;;
14611;SDS011;7392;52.078;11.650;2023-05-10T09:36:20;3.90;;;3.50;;
14611;SDS011;7392;52.078;11.650;2023-05-10T09:38:48;5.23;;;3.80;;
14611;SDS011;7392;52.078;11.650;2023-05-10T09:41:17;5.83;;;3.90;;
14611;SDS011;7392;52.078;11.650;2023-05-10T09:43:46;4.20;;;3.80;;
14611;SDS011;7392;52.078;11.650;2023-05-10T09:46:14;6.30;;;4.70;;
14611;SDS011;7392;52.078;11.650;2023-05-10T09:48:43;4.97;;;4.30;;
14611;SDS011;7392;52.078;11.650;2023-05-10T09:51:19;6.37;;;4.03;;
14611;SDS011;7392;52.078;11.650;2023-05-10T09:53:47;6.40;;;4.53;;
14611;SDS011;7392;52.078;11.650;2023-05-10T09:56:33;5.07;;;4.00;;
14611;SDS011;7392;52.078;11.650;2023-05-10T09:59:02;6.07;;;4.17;;
14611;SDS011;7392;52.078;11.650;2023-05-10T10:01:36;6.03;;;4.60;;
14611;SDS011;7392;52.078;11.650;2023-05-10T10:04:09;4.70;;;4.13;;
14611;SDS011;7392;52.078;11.650;2023-05-10T10:06:50;5.37;;;4.60;;
14611;SDS011;7392;52.078;11.650;2023-05-10T10:09:33;8.40;;;5.17;;
14611;SDS011;7392;52.078;11.650;2023-05-10T10:12:07;6.63;;;4.47;;
14611;SDS011;7392;52.078;11.650;2023-05-10T10:14:36;6.33;;;3.83;;
14611;SDS011;7392;52.078;11.650;2023-05-10T10:17:10;7.20;;;4.70;;
14611;SDS011;7392;52.078;11.650;2023-05-10T10:19:42;4.67;;;4.10;;
14611;SDS011;7392;52.078;11.650;2023-05-10T10:22:18;4.90;;;4.33;;
14611;SDS011;7392;52.078;11.650;2023-05-10T10:24:56;4.83;;;4.17;;
14611;SDS011;7392;52.078;11.650;2023-05-10T10:27:31;5.67;;;4.70;;
14611;SDS011;7392;52.078;11.650;2023-05-10T10:30:15;4.83;;;4.33;;
14611;SDS011;7392;52.078;11.650;2023-05-10T10:33:01;5.60;;;4.27;;
14611;SDS011;7392;52.078;11.650;2023-05-10T10:35:57;3.23;;;2.93;;
14611;SDS011;7392;52.078;11.650;2023-05-10T10:38:37;5.47;;;3.70;;
14611;SDS011;7392;52.078;11.650;2023-05-10T10:41:27;4.57;;;4.20;;
14611;SDS011;7392;52.078;11.650;2023-05-10T10:47:10;5.83;;;5.13;;
14611;SDS011;7392;52.078;11.650;2023-05-10T10:50:09;6.43;;;4.60;;
14611;SDS011;7392;52.078;11.650;2023-05-10T10:52:42;4.67;;;4.27;;
14611;SDS011;7392;52.078;11.650;2023-05-10T10:55:16;5.07;;;4.57;;
14611;SDS011;7392;52.078;11.650;2023-05-10T10:57:49;4.70;;;4.30;;
14611;SDS011;7392;52.078;11.650;2023-05-10T11:00:20;4.57;;;4.17;;
14611;SDS011;7392;52.078;11.650;2023-05-10T11:02:58;5.53;;;4.20;;
14611;SDS011;7392;52.078;11.650;2023-05-10T11:05:36;7.00;;;4.40;;
14611;SDS011;7392;52.078;11.650;2023-05-10T11:08:11;4.43;;;4.03;;
14611;SDS011;7392;52.078;11.650;2023-05-10T11:10:54;4.87;;;4.43;;
14611;SDS011;7392;52.078;11.650;2023-05-10T11:13:39;5.50;;;4.00;;
14611;SDS011;7392;52.078;11.650;2023-05-10T11:16:16;4.63;;;4.23;;
14611;SDS011;7392;52.078;11.650;2023-05-10T11:18:52;8.50;;;5.03;;
14611;SDS011;7392;52.078;11.650;2023-05-10T11:21:21;5.23;;;4.80;;
14611;SDS011;7392;52.078;11.650;2023-05-10T11:23:50;6.17;;;4.90;;
14611;SDS011;7392;52.078;11.650;2023-05-10T11:26:22;5.27;;;4.77;;
14611;SDS011;7392;52.078;11.650;2023-05-10T11:28:52;6.47;;;5.20;;
14611;SDS011;7392;52.078;11.650;2023-05-10T11:31:22;6.03;;;4.83;;
14611;SDS011;7392;52.078;11.650;2023-05-10T11:33:53;4.93;;;4.47;;
14611;SDS011;7392;52.078;11.650;2023-05-10T11:36:23;6.73;;;5.03;;
14611;SDS011;7392;52.078;11.650;2023-05-10T11:38:54;7.57;;;5.23;;
14611;SDS011;7392;52.078;11.650;2023-05-10T11:41:24;7.33;;;5.03;;
14611;SDS011;7392;52.078;11.650;2023-05-10T11:43:54;6.70;;;6.10;;
14611;SDS011;7392;52.078;11.650;2023-05-10T11:46:23;6.67;;;5.63;;
14611;SDS011;7392;52.078;11.650;2023-05-10T11:48:53;7.17;;;5.40;;
14611;SDS011;7392;52.078;11.650;2023-05-10T11:51:23;7.30;;;6.60;;
14611;SDS011;7392;52.078;11.650;2023-05-10T11:53:52;5.90;;;5.40;;
14611;SDS011;7392;52.078;11.650;2023-05-10T11:56:21;6.00;;;5.50;;
14611;SDS011;7392;52.078;11.650;2023-05-10T11:58:53;6.43;;;5.37;;
14611;SDS011;7392;52.078;11.650;2023-05-10T12:01:22;5.23;;;4.77;;
14611;SDS011;7392;52.078;11.650;2023-05-10T12:03:51;5.50;;;5.00;;
14611;SDS011;7392;52.078;11.650;2023-05-10T12:06:21;7.03;;;5.67;;
14611;SDS011;7392;52.078;11.650;2023-05-10T12:08:49;5.90;;;5.40;;
14611;SDS011;7392;52.078;11.650;2023-05-10T12:11:18;5.97;;;5.37;;
14611;SDS011;7392;52.078;11.650;2023-05-10T12:13:47;5.20;;;4.70;;
14611;SDS011;7392;52.078;11.650;2023-05-10T12:16:17;6.40;;;5.80;;
14611;SDS011;7392;52.078;11.650;2023-05-10T12:18:48;6.10;;;5.50;;
14611;SDS011;7392;52.078;11.650;2023-05-10T12:21:17;5.70;;;5.20;;
14611;SDS011;7392;52.078;11.650;2023-05-10T12:23:50;5.87;;;5.37;;
14611;SDS011;7392;52.078;11.650;2023-05-10T12:26:21;5.80;;;5.30;;
14611;SDS011;7392;52.078;11.650;2023-05-10T12:28:49;4.97;;;4.53;;
14611;SDS011;7392;52.078;11.650;2023-05-10T12:31:18;5.87;;;5.37;;
14611;SDS011;7392;52.078;11.650;2023-05-10T12:33:47;8.17;;;6.27;;
14611;SDS011;7392;52.078;11.650;2023-05-10T12:36:16;6.87;;;6.07;;
14611;SDS011;7392;52.078;11.650;2023-05-10T12:38:45;5.67;;;5.17;;
14611;SDS011;7392;52.078;11.650;2023-05-10T12:41:14;5.70;;;5.20;;
14611;SDS011;7392;52.078;11.650;2023-05-10T12:43:43;6.37;;;5.33;;
14611;SDS011;7392;52.078;11.650;2023-05-10T12:46:13;5.63;;;5.13;;
14611;SDS011;7392;52.078;11.650;2023-05-10T12:48:44;6.17;;;5.57;;
14611;SDS011;7392;52.078;11.650;2023-05-10T12:51:12;5.80;;;5.30;;
14611;SDS011;7392;52.078;11.650;2023-05-10T12:53:43;5.77;;;5.27;;
14611;SDS011;7392;52.078;11.650;2023-05-10T12:56:15;5.47;;;5.00;;
14611;SDS011;7392;52.078;11.650;2023-05-10T12:58:42;7.63;;;5.17;;
14611;SDS011;7392;52.078;11.650;2023-05-10T13:01:14;5.80;;;5.30;;
14611;SDS011;7392;52.078;11.650;2023-05-10T13:03:43;9.50;;;6.90;;
14611;SDS011;7392;52.078;11.650;2023-05-10T13:06:12;6.13;;;5.60;;
14611;SDS011;7392;52.078;11.650;2023-05-10T13:08:40;5.00;;;4.50;;
14611;SDS011;7392;52.078;11.650;2023-05-10T13:11:08;4.13;;;3.80;;
14611;SDS011;7392;52.078;11.650;2023-05-10T13:13:36;3.40;;;3.10;;
14611;SDS011;7392;52.078;11.650;2023-05-10T13:16:04;2.50;;;2.30;;
14611;SDS011;7392;52.078;11.650;2023-05-10T13:18:32;2.40;;;2.20;;
14611;SDS011;7392;52.078;11.650;2023-05-10T13:21:02;1.90;;;1.80;;
14611;SDS011;7392;52.078;11.650;2023-05-10T13:23:30;1.60;;;1.50;;
14611;SDS011;7392;52.078;11.650;2023-05-10T13:25:58;1.50;;;1.40;;
14611;SDS011;7392;52.078;11.650;2023-05-10T13:28:26;1.40;;;1.30;;
14611;SDS011;7392;52.078;11.650;2023-05-10T13:30:54;1.20;;;1.10;;
14611;SDS011;7392;52.078;11.650;2023-05-10T13:33:22;0.90;;;0.90;;
14611;SDS011;7392;52.078;11.650;2023-05-10T13:35:49;1.10;;;1.00;;
14611;SDS011;7392;52.078;11.650;2023-05-10T13:38:22;1.10;;;0.80;;
14611;SDS011;7392;52.078;11.650;2023-05-10T13:40:50;0.87;;;0.87;;
14611;SDS011;7392;52.078;11.650;2023-05-10T13:43:19;0.80;;;0.80;;
14611;SDS011;7392;52.078;11.650;2023-05-10T13:45:47;0.63;;;0.63;;
14611;SDS011;7392;52.078;11.650;2023-05-10T13:48:15;0.80;;;0.80;;
14611;SDS011;7392;52.078;11.650;2023-05-10T13:50:43;0.70;;;0.70;;
14611;SDS011;7392;52.078;11.650;2023-05-10T13:53:11;0.70;;;0.70;;
14611;SDS011;7392;52.078;11.650;2023-05-10T13:55:40;0.70;;;0.67;;
14611;SDS011;7392;52.078;11.650;2023-05-10T13:58:08;0.70;;;0.70;;
14611;SDS011;7392;52.078;11.650;2023-05-10T14:00:36;0.80;;;0.80;;
14611;SDS011;7392;52.078;11.650;2023-05-10T14:03:04;0.60;;;0.60;;
14611;SDS011;7392;52.078;11.650;2023-05-10T14:05:35;0.90;;;0.70;;
14611;SDS011;7392;52.078;11.650;2023-05-10T14:08:03;1.03;;;0.80;;
14611;SDS011;7392;52.078;11.650;2023-05-10T14:10:31;0.70;;;0.70;;
14611;SDS011;7392;52.078;11.650;2023-05-10T14:13:00;0.80;;;0.80;;
14611;SDS011;7392;52.078;11.650;2023-05-10T14:15:29;0.70;;;0.70;;
14611;SDS011;7392;52.078;11.650;2023-05-10T14:17:57;0.90;;;0.90;;
14611;SDS011;7392;52.078;11.650;2023-05-10T14:20:25;1.03;;;0.93;;
14611;SDS011;7392;52.078;11.650;2023-05-10T14:22:53;1.13;;;1.03;;
14611;SDS011;7392;52.078;11.650;2023-05-10T14:25:21;1.70;;;1.53;;
14611;SDS011;7392;52.078;11.650;2023-05-10T14:27:50;1.50;;;1.40;;
14611;SDS011;7392;52.078;11.650;2023-05-10T14:30:22;1.23;;;1.13;;
14611;SDS011;7392;52.078;11.650;2023-05-10T14:32:50;1.30;;;1.20;;
14611;SDS011;7392;52.078;11.650;2023-05-10T14:35:20;1.40;;;1.13;;
14611;SDS011;7392;52.078;11.650;2023-05-10T14:37:49;1.27;;;1.17;;
14611;SDS011;7392;52.078;11.650;2023-05-10T14:40:17;1.00;;;0.97;;
14611;SDS011;7392;52.078;11.650;2023-05-10T14:42:45;1.20;;;1.10;;
14611;SDS011;7392;52.078;11.650;2023-05-10T14:45:13;1.20;;;1.10;;
14611;SDS011;7392;52.078;11.650;2023-05-10T14:47:43;1.40;;;1.30;;
14611;SDS011;7392;52.078;11.650;2023-05-10T14:50:11;0.90;;;0.90;;
14611;SDS011;7392;52.078;11.650;2023-05-10T14:52:59;1.87;;;1.70;;
14611;SDS011;7392;52.078;11.650;2023-05-10T14:55:27;1.70;;;1.60;;
14611;SDS011;7392;52.078;11.650;2023-05-10T14:57:55;2.00;;;1.80;;
14611;SDS011;7392;52.078;11.650;2023-05-10T15:00:25;1.90;;;1.57;;
14611;SDS011;7392;52.078;11.650;2023-05-10T15:02:54;2.07;;;1.93;;
14611;SDS011;7392;52.078;11.650;2023-05-10T15:05:23;2.20;;;2.00;;
14611;SDS011;7392;52.078;11.650;2023-05-10T15:07:51;1.87;;;1.70;;
14611;SDS011;7392;52.078;11.650;2023-05-10T15:10:19;1.60;;;1.50;;